createdAt,value
2017-12-11T17:45:33.225Z,6.2
2017-12-11T17:46:32.340Z,6.2
2017-12-11T17:47:31.568Z,6.2
2017-12-11T17:48:30.401Z,6.1
2017-12-11T17:49:29.412Z,6.2
2017-12-11T17:50:28.750Z,6.2
2017-12-11T17:51:27.473Z,6.2
2017-12-11T17:52:26.696Z,6.2
2017-12-11T17:55:23.970Z,6.2
2017-12-11T17:56:23.082Z,6.3
2017-12-11T17:57:22.206Z,6.3
2017-12-11T17:59:20.419Z,6.3
2017-12-11T18:00:19.032Z,6.3
2017-12-11T18:01:18.044Z,6.3
2017-12-11T18:02:17.372Z,6.3
2017-12-11T18:04:15.474Z,6.4
2017-12-11T18:06:13.603Z,6.4
2017-12-11T18:07:12.346Z,6.4
2017-12-11T18:08:11.736Z,6.5
2017-12-11T18:09:10.564Z,6.5
2017-12-11T18:10:09.997Z,6.6
2017-12-11T18:11:08.607Z,6.6
2017-12-11T18:12:07.931Z,6.6
2017-12-11T18:13:07.149Z,6.7
2017-12-11T18:14:05.965Z,6.7
2017-12-11T18:14:36.404Z,6.7
2017-12-11T18:16:04.203Z,6.9
2017-12-11T18:17:03.207Z,6.9
2017-12-11T18:18:02.319Z,7
2017-12-11T18:20:00.526Z,7
2017-12-11T18:20:59.750Z,7
2017-12-11T18:21:58.469Z,7
2017-12-11T18:22:57.689Z,7
2017-12-11T18:23:56.797Z,7
2017-12-11T18:24:55.609Z,7
2017-12-11T18:25:54.594Z,7
2017-12-11T18:26:25.024Z,7
2017-12-11T18:27:52.930Z,6.9
2017-12-11T18:28:51.834Z,6.9
2017-12-11T18:30:50.055Z,6.9
2017-12-11T18:31:49.163Z,6.8
2017-12-11T18:32:48.377Z,6.8
2017-12-11T18:33:47.095Z,6.8
2017-12-11T18:35:45.312Z,6.7
2017-12-11T18:37:43.413Z,6.7
2017-12-11T18:38:42.632Z,6.7
2017-12-11T18:40:40.737Z,6.7
2017-12-11T18:41:40.071Z,6.7
2017-12-11T18:42:38.681Z,6.7
2017-12-11T18:43:37.686Z,6.7
2017-12-11T18:44:37.018Z,6.7
2017-12-11T18:45:36.127Z,6.7
2017-12-11T18:46:35.241Z,6.7
2017-12-11T18:47:34.068Z,6.7
2017-12-11T18:48:33.279Z,6.7
2017-12-11T18:50:31.595Z,6.6
2017-12-11T18:51:30.307Z,6.6
2017-12-11T18:52:29.536Z,6.6
2017-12-11T18:53:28.268Z,6.7
2017-12-11T18:55:26.982Z,6.7
2017-12-11T18:56:25.588Z,6.7
2017-12-11T18:56:56.022Z,6.7
2017-12-11T18:57:26.557Z,6.7
2017-12-11T18:58:23.768Z,6.7
2017-12-11T18:59:22.890Z,6.7
2017-12-11T19:00:22.116Z,6.8
2017-12-11T19:01:21.334Z,6.8
2017-12-11T19:02:20.056Z,6.8
2017-12-11T19:03:19.165Z,6.8
2017-12-11T19:04:18.386Z,6.9
2017-12-11T19:05:17.431Z,6.9
2017-12-11T19:07:15.634Z,7
2017-12-11T19:07:45.703Z,7
2017-12-11T19:10:12.483Z,7
2017-12-11T19:11:11.809Z,7.1
2017-12-11T19:12:10.640Z,7.1
2017-12-11T19:13:09.980Z,7.1
2017-12-11T19:14:09.004Z,7.1
2017-12-11T19:14:39.552Z,7.1
2017-12-11T19:15:09.985Z,7.1
2017-12-11T19:16:06.832Z,7.1
2017-12-11T19:17:05.958Z,7
2017-12-11T19:18:05.179Z,7
2017-12-11T19:19:04.130Z,7
2017-12-11T19:20:03.145Z,7
2017-12-11T19:21:02.287Z,7
2017-12-11T19:22:01.614Z,7
2017-12-11T19:23:00.341Z,7
2017-12-11T19:23:59.565Z,7
2017-12-11T19:24:58.963Z,7
2017-12-11T19:25:57.722Z,7
2017-12-11T19:26:56.945Z,7
2017-12-11T19:27:55.609Z,7
2017-12-11T19:28:54.827Z,7
2017-12-11T19:29:53.655Z,7
2017-12-11T19:30:52.987Z,7.1
2017-12-11T19:31:52.220Z,7.1
2017-12-11T19:33:50.216Z,7.1
2017-12-11T19:34:49.330Z,7.1
2017-12-11T19:35:48.161Z,7.2
2017-12-11T19:36:47.375Z,7.2
2017-12-11T19:38:45.472Z,7.2
2017-12-11T19:39:44.706Z,7.2
2017-12-11T19:40:43.831Z,7.2
2017-12-11T19:41:42.759Z,7.2
2017-12-11T19:42:42.086Z,7.3
2017-12-11T19:44:39.680Z,7.2
2017-12-11T19:45:38.903Z,7.2
2017-12-11T19:47:37.108Z,7.2
2017-12-11T19:48:07.242Z,7.2
2017-12-11T19:48:37.778Z,7.2
2017-12-11T19:49:35.387Z,7.2
2017-12-11T19:51:33.378Z,7.2
2017-12-11T19:52:32.600Z,7.2
2017-12-11T19:54:30.594Z,7.2
2017-12-11T19:55:29.814Z,7.3
2017-12-11T19:57:27.820Z,7.3
2017-12-11T19:58:26.656Z,7.3
2017-12-11T19:59:25.916Z,7.3
2017-12-11T20:01:24.237Z,7.3
2017-12-11T20:02:23.072Z,7.3
2017-12-11T20:03:22.182Z,7.3
2017-12-11T20:04:21.175Z,7.3
2017-12-11T20:05:20.291Z,7.2
2017-12-11T20:07:18.501Z,7.2
2017-12-11T20:08:17.835Z,7.2
2017-12-11T20:09:16.855Z,7.2
2017-12-11T20:10:15.675Z,7.2
2017-12-11T20:11:14.794Z,7.2
2017-12-11T20:12:14.126Z,7.2
2017-12-11T20:13:12.852Z,7.2
2017-12-11T20:14:12.190Z,7.2
2017-12-11T20:15:11.019Z,7.2
2017-12-11T20:16:10.134Z,7.2
2017-12-11T20:17:09.464Z,7.2
2017-12-11T20:18:08.481Z,7.2
2017-12-11T20:19:07.206Z,7.2
2017-12-11T20:20:06.339Z,7.1
2017-12-11T20:21:05.570Z,7.2
2017-12-11T20:22:04.684Z,7.1
2017-12-11T20:23:03.511Z,7.2
2017-12-11T20:24:02.727Z,7.1
2017-12-11T20:25:01.548Z,7.1
2017-12-11T20:26:00.872Z,7.1
2017-12-11T20:27:00.192Z,7.1
2017-12-11T20:28:57.803Z,7.1
2017-12-11T20:29:57.021Z,7.1
2017-12-11T20:30:56.241Z,7.1
2017-12-11T20:32:54.233Z,7.1
2017-12-11T20:33:24.777Z,7.1
2017-12-11T20:34:52.692Z,7.1
2017-12-11T20:36:50.895Z,7.1
2017-12-11T20:37:49.622Z,7.1
2017-12-11T20:38:48.738Z,7.1
2017-12-11T20:39:47.965Z,7.1
2017-12-11T20:41:46.078Z,7.1
2017-12-11T20:44:43.070Z,7.1
2017-12-11T20:45:42.185Z,7.1
2017-12-11T20:46:41.402Z,7.1
2017-12-11T20:48:39.718Z,7.1
2017-12-11T20:51:36.930Z,7.2
2017-12-11T20:52:35.429Z,7.2
2017-12-11T20:54:33.926Z,7.2
2017-12-11T20:55:32.941Z,7.2
2017-12-11T20:56:32.047Z,7.2
2017-12-11T20:57:31.056Z,7.3
2017-12-11T20:58:30.500Z,7.3
2017-12-11T20:59:29.437Z,7.3
2017-12-11T21:00:28.254Z,7.3
2017-12-11T21:01:27.477Z,7.3
2017-12-11T21:02:26.592Z,7.3
2017-12-11T21:04:24.802Z,7.4
2017-12-11T21:05:23.520Z,7.4
2017-12-11T21:06:22.525Z,7.4
2017-12-11T21:07:21.741Z,7.4
2017-12-11T21:08:21.172Z,7.4
2017-12-11T21:09:19.804Z,7.4
2017-12-11T21:10:19.238Z,7.4
2017-12-11T21:11:17.939Z,7.4
2017-12-11T21:12:16.962Z,7.5
2017-12-11T21:13:16.392Z,7.5
2017-12-11T21:14:15.296Z,7.5
2017-12-11T21:15:14.010Z,7.5
2017-12-11T21:16:13.518Z,7.5
2017-12-11T21:17:12.849Z,7.5
2017-12-11T21:18:11.777Z,7.5
2017-12-11T21:19:10.594Z,7.5
2017-12-11T21:20:09.926Z,7.4
2017-12-11T21:21:08.742Z,7.5
2017-12-11T21:22:07.968Z,7.4
2017-12-11T21:23:07.181Z,7.4
2017-12-11T21:23:37.601Z,7.4
2017-12-11T21:24:08.035Z,7.5
2017-12-11T21:24:38.572Z,7.5
2017-12-11T21:25:09.097Z,7.4
2017-12-11T21:25:39.634Z,7.4
2017-12-11T21:27:03.015Z,7.4
2017-12-11T21:28:02.419Z,7.4
2017-12-11T21:29:01.359Z,7.4
2017-12-11T21:30:00.680Z,7.3
2017-12-11T21:30:59.631Z,7.4
2017-12-11T21:32:57.742Z,7.4
2017-12-11T21:33:56.733Z,7.4
2017-12-11T21:34:56.065Z,7.4
2017-12-11T21:35:26.509Z,7.4
2017-12-11T21:35:57.053Z,7.4
2017-12-11T21:36:27.818Z,7.4
2017-12-11T21:38:52.094Z,7.5
2017-12-11T21:39:51.483Z,7.5
2017-12-11T21:41:49.094Z,7.5
2017-12-11T21:43:47.423Z,7.5
2017-12-11T21:44:46.656Z,7.5
2017-12-11T21:45:45.591Z,7.5
2017-12-11T21:46:44.816Z,7.6
2017-12-11T21:49:41.830Z,7.6
2017-12-11T21:51:39.958Z,7.7
2017-12-11T21:52:39.392Z,7.6
2017-12-11T21:53:38.219Z,7.6
2017-12-11T21:54:37.230Z,7.6
2017-12-11T21:55:36.581Z,7.6
2017-12-11T21:56:35.522Z,7.6
2017-12-11T21:58:33.738Z,7.7
2017-12-11T21:59:32.567Z,7.7
2017-12-11T22:00:31.914Z,7.7
2017-12-11T22:01:30.531Z,7.7
2017-12-11T22:02:29.767Z,7.7
2017-12-11T22:03:29.210Z,7.6
2017-12-11T22:05:27.315Z,7.6
2017-12-11T22:05:57.953Z,7.6
2017-12-11T22:06:28.491Z,7.7
2017-12-11T22:06:58.927Z,7.7
2017-12-11T22:08:24.416Z,7.7
2017-12-11T22:09:23.530Z,7.7
2017-12-11T22:10:22.791Z,7.7
2017-12-11T22:11:21.907Z,7.7
2017-12-11T22:12:20.410Z,7.7
2017-12-11T22:13:19.734Z,7.7
2017-12-11T22:14:19.067Z,7.7
2017-12-11T22:15:17.996Z,7.7
2017-12-11T22:15:48.634Z,7.7
2017-12-11T22:16:19.065Z,7.7
2017-12-11T22:16:49.599Z,7.7
2017-12-11T22:19:13.978Z,7.7
2017-12-11T22:20:13.200Z,7.7
2017-12-11T22:21:12.204Z,7.7
2017-12-11T22:22:11.426Z,7.7
2017-12-11T22:23:10.640Z,7.8
2017-12-11T22:24:09.473Z,7.8
2017-12-11T22:25:08.798Z,7.8
2017-12-11T22:26:07.620Z,7.8
2017-12-11T22:28:06.011Z,7.8
2017-12-11T22:29:05.020Z,7.8
2017-12-11T22:30:04.140Z,7.8
2017-12-11T22:31:03.255Z,7.8
2017-12-11T22:32:01.860Z,7.8
2017-12-11T22:33:01.182Z,7.8
2017-12-11T22:34:00.299Z,7.7
2017-12-11T22:35:58.404Z,7.8
2017-12-11T22:36:57.628Z,7.8
2017-12-11T22:37:56.837Z,7.7
2017-12-11T22:38:55.775Z,7.7
2017-12-11T22:39:54.887Z,7.7
2017-12-11T22:40:54.005Z,7.7
2017-12-11T22:42:52.222Z,7.7
2017-12-11T22:44:50.325Z,7.6
2017-12-11T22:45:49.554Z,7.6
2017-12-11T22:46:48.492Z,7.6
2017-12-11T22:47:47.497Z,7.6
2017-12-11T22:48:46.613Z,7.6
2017-12-11T22:50:44.728Z,7.5
2017-12-11T22:51:43.961Z,7.5
2017-12-11T22:52:43.073Z,7.4
2017-12-11T22:53:42.080Z,7.4
2017-12-11T22:55:40.392Z,7.3
2017-12-11T22:56:38.998Z,7.3
2017-12-11T22:57:09.530Z,7.3
2017-12-11T22:58:37.555Z,7.3
2017-12-11T22:59:36.482Z,7.3
2017-12-11T23:00:35.716Z,7.3
2017-12-11T23:01:34.442Z,7.2
2017-12-11T23:04:32.142Z,7.2
2017-12-11T23:05:30.857Z,7.3
2017-12-11T23:06:29.966Z,7.3
2017-12-11T23:07:29.285Z,7.3
2017-12-11T23:08:28.210Z,7.3
2017-12-11T23:09:27.150Z,7.3
2017-12-11T23:10:26.258Z,7.3
2017-12-11T23:12:24.460Z,7.3
2017-12-11T23:13:23.472Z,7.2
2017-12-11T23:14:22.793Z,7.2
2017-12-11T23:15:21.809Z,7.2
2017-12-11T23:16:21.020Z,7.3
2017-12-11T23:18:18.826Z,7.3
2017-12-11T23:19:18.255Z,7.3
2017-12-11T23:20:16.873Z,7.3
2017-12-11T23:21:16.383Z,7.3
2017-12-11T23:22:15.202Z,7.3
2017-12-11T23:23:14.433Z,7.3
2017-12-11T23:24:13.167Z,7.3
2017-12-11T23:25:12.173Z,7.3
2017-12-11T23:26:11.614Z,7.3
2017-12-11T23:27:10.447Z,7.4
2017-12-11T23:28:09.618Z,7.4
2017-12-11T23:29:09.057Z,7.4
2017-12-11T23:30:07.574Z,7.4
2017-12-11T23:32:05.823Z,7.4
2017-12-11T23:33:04.826Z,7.4
2017-12-11T23:34:04.050Z,7.4
2017-12-11T23:35:03.266Z,7.4
2017-12-11T23:36:02.163Z,7.4
2017-12-11T23:37:01.495Z,7.4
2017-12-11T23:38:00.313Z,7.4
2017-12-11T23:38:59.631Z,7.4
2017-12-11T23:40:57.727Z,7.4
2017-12-11T23:41:56.845Z,7.4
2017-12-11T23:42:27.265Z,7.4
2017-12-11T23:43:54.658Z,7.4
2017-12-11T23:44:54.096Z,7.4
2017-12-11T23:45:52.825Z,7.4
2017-12-11T23:46:52.438Z,7.4
2017-12-11T23:47:51.155Z,7.4
2017-12-11T23:48:50.274Z,7.4
2017-12-11T23:49:49.492Z,7.4
2017-12-11T23:50:48.317Z,7.4
2017-12-11T23:51:47.544Z,7.5
2017-12-11T23:52:17.680Z,7.5
2017-12-11T23:52:47.999Z,7.5
2017-12-11T23:53:18.641Z,7.5
2017-12-11T23:54:44.648Z,7.5
2017-12-11T23:55:43.970Z,7.5
2017-12-11T23:56:42.904Z,7.5
2017-12-11T23:57:41.725Z,7.5
2017-12-11T23:58:41.068Z,7.5
2017-12-11T23:59:40.396Z,7.5
